sensor_id;sensor_type;location;lat;lon;timestamp;pressure;altitude;pressure_sealevel;temperature;humidity
62617;BME280;62539;51.190;6.808;2023-08-17T00:01:09;101537.63;;;25.27;60.63
62617;BME280;62539;51.190;6.808;2023-08-17T00:03:35;101539.59;;;25.23;60.64
62617;BME280;62539;51.190;6.808;2023-08-17T00:06:00;101534.34;;;25.21;60.47
62617;BME280;62539;51.190;6.808;2023-08-17T00:08:25;101541.53;;;25.19;60.56
62617;BME280;62539;51.190;6.808;2023-08-17T00:10:51;101546.94;;;25.18;60.80
62617;BME280;62539;51.190;6.808;2023-08-17T00:13:16;101536.38;;;25.16;60.59
62617;BME280;62539;51.190;6.808;2023-08-17T00:15:42;101549.75;;;25.15;60.65
62617;BME280;62539;51.190;6.808;2023-08-17T00:18:09;101540.13;;;25.12;60.74
62617;BME280;62539;51.190;6.808;2023-08-17T00:20:35;101544.66;;;25.10;60.84
62617;BME280;62539;51.190;6.808;2023-08-17T00:23:00;101543.88;;;25.08;61.15
62617;BME280;62539;51.190;6.808;2023-08-17T00:25:26;101549.28;;;25.06;61.04
62617;BME280;62539;51.190;6.808;2023-08-17T00:27:51;101547.63;;;25.04;61.29
62617;BME280;62539;51.190;6.808;2023-08-17T00:30:17;101553.88;;;25.03;60.98
62617;BME280;62539;51.190;6.808;2023-08-17T00:32:42;101552.25;;;25.00;61.06
62617;BME280;62539;51.190;6.808;2023-08-17T00:35:07;101550.53;;;24.99;61.12
62617;BME280;62539;51.190;6.808;2023-08-17T00:37:33;101543.50;;;24.98;61.35
62617;BME280;62539;51.190;6.808;2023-08-17T00:39:58;101551.50;;;24.97;61.19
62617;BME280;62539;51.190;6.808;2023-08-17T00:42:24;101550.81;;;24.93;61.46
62617;BME280;62539;51.190;6.808;2023-08-17T00:44:49;101549.00;;;24.93;61.50
62617;BME280;62539;51.190;6.808;2023-08-17T00:47:15;101552.59;;;24.92;61.20
62617;BME280;62539;51.190;6.808;2023-08-17T00:49:40;101554.47;;;24.90;61.63
62617;BME280;62539;51.190;6.808;2023-08-17T00:52:06;101551.91;;;24.89;61.43
62617;BME280;62539;51.190;6.808;2023-08-17T00:54:31;101554.63;;;24.87;61.65
62617;BME280;62539;51.190;6.808;2023-08-17T00:56:57;101541.34;;;24.87;61.67
62617;BME280;62539;51.190;6.808;2023-08-17T00:59:24;101537.91;;;24.85;61.85
62617;BME280;62539;51.190;6.808;2023-08-17T01:01:50;101534.47;;;24.83;61.79
62617;BME280;62539;51.190;6.808;2023-08-17T01:04:15;101533.69;;;24.81;61.72
62617;BME280;62539;51.190;6.808;2023-08-17T01:06:41;101536.34;;;24.81;61.62
62617;BME280;62539;51.190;6.808;2023-08-17T01:09:06;101535.50;;;24.80;61.80
62617;BME280;62539;51.190;6.808;2023-08-17T01:12:00;101527.59;;;24.79;61.89
62617;BME280;62539;51.190;6.808;2023-08-17T01:15:04;101527.75;;;24.76;61.78
62617;BME280;62539;51.190;6.808;2023-08-17T01:20:40;101534.94;;;24.74;62.04
62617;BME280;62539;51.190;6.808;2023-08-17T01:23:06;101526.13;;;24.73;61.67
62617;BME280;62539;51.190;6.808;2023-08-17T01:25:32;101523.50;;;24.72;61.97
62617;BME280;62539;51.190;6.808;2023-08-17T01:28:04;101518.28;;;24.70;62.06
62617;BME280;62539;51.190;6.808;2023-08-17T01:30:33;101516.47;;;24.71;62.20
62617;BME280;62539;51.190;6.808;2023-08-17T01:33:54;101506.94;;;24.66;62.34
62617;BME280;62539;51.190;6.808;2023-08-17T01:36:33;101504.31;;;24.66;61.98
62617;BME280;62539;51.190;6.808;2023-08-17T01:39:03;101512.25;;;24.66;61.97
62617;BME280;62539;51.190;6.808;2023-08-17T01:41:31;101502.59;;;24.65;62.17
62617;BME280;62539;51.190;6.808;2023-08-17T01:43:59;101510.63;;;24.64;62.23
62617;BME280;62539;51.190;6.808;2023-08-17T01:46:30;101524.75;;;24.64;62.42
62617;BME280;62539;51.190;6.808;2023-08-17T01:49:00;101524.75;;;24.64;62.16
62617;BME280;62539;51.190;6.808;2023-08-17T01:51:25;101521.31;;;24.62;62.27
62617;BME280;62539;51.190;6.808;2023-08-17T01:53:51;101510.69;;;24.62;62.39
62617;BME280;62539;51.190;6.808;2023-08-17T01:56:17;101514.28;;;24.61;62.42
62617;BME280;62539;51.190;6.808;2023-08-17T01:58:43;101515.16;;;24.62;62.21
62617;BME280;62539;51.190;6.808;2023-08-17T02:01:09;101516.09;;;24.61;62.13
62617;BME280;62539;51.190;6.808;2023-08-17T02:03:34;101513.50;;;24.59;62.38
62617;BME280;62539;51.190;6.808;2023-08-17T02:06:00;101508.19;;;24.59;62.41
62617;BME280;62539;51.190;6.808;2023-08-17T02:08:26;101505.53;;;24.59;62.38
62617;BME280;62539;51.190;6.808;2023-08-17T02:10:51;101504.75;;;24.57;62.36
62617;BME280;62539;51.190;6.808;2023-08-17T02:13:18;101504.75;;;24.57;62.38
62617;BME280;62539;51.190;6.808;2023-08-17T02:15:44;101503.81;;;24.58;62.57
62617;BME280;62539;51.190;6.808;2023-08-17T02:18:10;101505.69;;;24.56;62.40
62617;BME280;62539;51.190;6.808;2023-08-17T02:20:35;101508.34;;;24.56;62.35
62617;BME280;62539;51.190;6.808;2023-08-17T02:23:01;101507.50;;;24.56;62.43
62617;BME280;62539;51.190;6.808;2023-08-17T02:25:26;101515.44;;;24.56;62.21
62617;BME280;62539;51.190;6.808;2023-08-17T02:27:59;101510.19;;;24.54;62.65
62617;BME280;62539;51.190;6.808;2023-08-17T02:30:25;101512.84;;;24.54;62.41
62617;BME280;62539;51.190;6.808;2023-08-17T02:32:50;101510.19;;;24.54;62.39
62617;BME280;62539;51.190;6.808;2023-08-17T02:35:16;101509.34;;;24.54;62.24
62617;BME280;62539;51.190;6.808;2023-08-17T02:37:41;101506.75;;;24.52;62.72
62617;BME280;62539;51.190;6.808;2023-08-17T02:40:07;101505.91;;;24.51;62.36
62617;BME280;62539;51.190;6.808;2023-08-17T02:42:32;101498.81;;;24.52;62.29
62617;BME280;62539;51.190;6.808;2023-08-17T02:44:58;101505.03;;;24.51;62.41
62617;BME280;62539;51.190;6.808;2023-08-17T02:47:23;101502.41;;;24.51;62.65
62617;BME280;62539;51.190;6.808;2023-08-17T02:49:49;101495.38;;;24.50;62.51
62617;BME280;62539;51.190;6.808;2023-08-17T02:52:14;101495.38;;;24.50;62.49
62617;BME280;62539;51.190;6.808;2023-08-17T02:54:40;101496.31;;;24.49;62.52
62617;BME280;62539;51.190;6.808;2023-08-17T02:57:05;101488.34;;;24.49;62.42
62617;BME280;62539;51.190;6.808;2023-08-17T02:59:31;101487.56;;;24.47;62.37
62617;BME280;62539;51.190;6.808;2023-08-17T03:01:56;101484.06;;;24.46;62.73
62617;BME280;62539;51.190;6.808;2023-08-17T03:04:22;101485.84;;;24.46;62.87
62617;BME280;62539;51.190;6.808;2023-08-17T03:06:48;101487.66;;;24.45;62.83
62617;BME280;62539;51.190;6.808;2023-08-17T03:09:13;101475.31;;;24.44;62.54
62617;BME280;62539;51.190;6.808;2023-08-17T03:11:39;101481.56;;;24.43;62.80
62617;BME280;62539;51.190;6.808;2023-08-17T03:14:04;101488.66;;;24.43;62.54
62617;BME280;62539;51.190;6.808;2023-08-17T03:16:29;101486.94;;;24.42;62.71
62617;BME280;62539;51.190;6.808;2023-08-17T03:18:55;101487.84;;;24.41;62.71
62617;BME280;62539;51.190;6.808;2023-08-17T03:21:21;101486.13;;;24.40;62.65
62617;BME280;62539;51.190;6.808;2023-08-17T03:23:48;101492.38;;;24.39;62.75
62617;BME280;62539;51.190;6.808;2023-08-17T03:26:14;101491.53;;;24.38;62.67
62617;BME280;62539;51.190;6.808;2023-08-17T03:28:40;101488.88;;;24.38;62.80
62617;BME280;62539;51.190;6.808;2023-08-17T03:31:06;101481.91;;;24.35;63.06
62617;BME280;62539;51.190;6.808;2023-08-17T03:33:34;101492.47;;;24.37;62.73
62617;BME280;62539;51.190;6.808;2023-08-17T03:36:00;101497.81;;;24.35;62.74
62617;BME280;62539;51.190;6.808;2023-08-17T03:38:26;101496.09;;;24.34;62.99
62617;BME280;62539;51.190;6.808;2023-08-17T03:40:51;101499.69;;;24.33;62.91
62617;BME280;62539;51.190;6.808;2023-08-17T03:43:17;101502.34;;;24.33;62.96
62617;BME280;62539;51.190;6.808;2023-08-17T03:45:42;101497.97;;;24.32;62.81
62617;BME280;62539;51.190;6.808;2023-08-17T03:48:08;101491.88;;;24.30;62.90
62617;BME280;62539;51.190;6.808;2023-08-17T03:50:34;101499.00;;;24.30;62.98
62617;BME280;62539;51.190;6.808;2023-08-17T03:52:59;101505.16;;;24.30;62.94
62617;BME280;62539;51.190;6.808;2023-08-17T03:55:25;101506.06;;;24.29;62.89
62617;BME280;62539;51.190;6.808;2023-08-17T03:57:50;101507.00;;;24.28;63.38
62617;BME280;62539;51.190;6.808;2023-08-17T04:00:16;101505.28;;;24.27;63.27
62617;BME280;62539;51.190;6.808;2023-08-17T04:02:43;101507.94;;;24.27;63.36
62617;BME280;62539;51.190;6.808;2023-08-17T04:05:08;101507.16;;;24.25;63.33
62617;BME280;62539;51.190;6.808;2023-08-17T04:07:34;101507.16;;;24.25;63.41
62617;BME280;62539;51.190;6.808;2023-08-17T04:10:00;101512.47;;;24.25;63.01
62617;BME280;62539;51.190;6.808;2023-08-17T04:12:25;101509.00;;;24.23;63.41
62617;BME280;62539;51.190;6.808;2023-08-17T04:14:50;101514.31;;;24.23;63.51
62617;BME280;62539;51.190;6.808;2023-08-17T04:17:16;101518.78;;;24.22;63.26
62617;BME280;62539;51.190;6.808;2023-08-17T04:19:41;101518.00;;;24.20;63.14
62617;BME280;62539;51.190;6.808;2023-08-17T04:22:07;101525.06;;;24.20;63.39
62617;BME280;62539;51.190;6.808;2023-08-17T04:24:32;101525.06;;;24.20;63.39
62617;BME280;62539;51.190;6.808;2023-08-17T04:26:58;101526.00;;;24.19;63.43
62617;BME280;62539;51.190;6.808;2023-08-17T04:29:23;101526.94;;;24.18;63.38
62617;BME280;62539;51.190;6.808;2023-08-17T04:31:48;101527.81;;;24.18;63.25
62617;BME280;62539;51.190;6.808;2023-08-17T04:34:14;101530.50;;;24.17;63.39
62617;BME280;62539;51.190;6.808;2023-08-17T04:36:39;101530.50;;;24.17;63.29
62617;BME280;62539;51.190;6.808;2023-08-17T04:39:05;101527.00;;;24.16;63.37
62617;BME280;62539;51.190;6.808;2023-08-17T04:41:30;101521.78;;;24.15;63.29
62617;BME280;62539;51.190;6.808;2023-08-17T04:43:56;101520.94;;;24.14;63.63
62617;BME280;62539;51.190;6.808;2023-08-17T04:46:21;101522.69;;;24.14;63.26
62617;BME280;62539;51.190;6.808;2023-08-17T04:48:47;101524.50;;;24.13;63.37
62617;BME280;62539;51.190;6.808;2023-08-17T04:51:13;101530.66;;;24.14;63.54
62617;BME280;62539;51.190;6.808;2023-08-17T04:53:39;101528.94;;;24.13;63.24
62617;BME280;62539;51.190;6.808;2023-08-17T04:56:05;101529.81;;;24.13;63.35
62617;BME280;62539;51.190;6.808;2023-08-17T04:58:30;101535.13;;;24.13;63.72
62617;BME280;62539;51.190;6.808;2023-08-17T05:00:56;101539.53;;;24.13;63.76
62617;BME280;62539;51.190;6.808;2023-08-17T05:03:21;101548.41;;;24.12;63.57
62617;BME280;62539;51.190;6.808;2023-08-17T05:05:47;101536.88;;;24.13;63.54
62617;BME280;62539;51.190;6.808;2023-08-17T05:08:12;101539.53;;;24.13;63.71
62617;BME280;62539;51.190;6.808;2023-08-17T05:10:39;101549.28;;;24.12;63.39
62617;BME280;62539;51.190;6.808;2023-08-17T05:13:04;101541.25;;;24.14;63.54
62617;BME280;62539;51.190;6.808;2023-08-17T05:15:29;101540.41;;;24.13;63.83
62617;BME280;62539;51.190;6.808;2023-08-17T05:17:55;101546.56;;;24.14;63.25
62617;BME280;62539;51.190;6.808;2023-08-17T05:20:21;101536.88;;;24.13;63.01
62617;BME280;62539;51.190;6.808;2023-08-17T05:22:47;101539.53;;;24.13;63.24
62617;BME280;62539;51.190;6.808;2023-08-17T05:25:13;101546.56;;;24.14;62.98
62617;BME280;62539;51.190;6.808;2023-08-17T05:27:38;101553.06;;;24.06;62.54
62617;BME280;62539;51.190;6.808;2023-08-17T05:30:04;101548.97;;;23.99;62.57
62617;BME280;62539;51.190;6.808;2023-08-17T05:32:30;101546.38;;;23.98;62.00
62617;BME280;62539;51.190;6.808;2023-08-17T05:34:56;101541.94;;;23.98;61.87
62617;BME280;62539;51.190;6.808;2023-08-17T05:37:22;101548.44;;;23.91;61.54
62617;BME280;62539;51.190;6.808;2023-08-17T05:39:47;101553.38;;;23.80;61.64
62617;BME280;62539;51.190;6.808;2023-08-17T05:42:13;101557.25;;;23.72;61.95
62617;BME280;62539;51.190;6.808;2023-08-17T05:44:38;101555.03;;;23.61;62.03
62617;BME280;62539;51.190;6.808;2023-08-17T05:47:04;101558.16;;;23.51;61.54
62617;BME280;62539;51.190;6.808;2023-08-17T05:49:29;101554.47;;;23.34;62.07
62617;BME280;62539;51.190;6.808;2023-08-17T05:51:54;101561.56;;;23.11;62.18
62617;BME280;62539;51.190;6.808;2023-08-17T05:54:20;101553.13;;;23.01;62.75
62617;BME280;62539;51.190;6.808;2023-08-17T05:56:45;101555.75;;;23.01;62.75
62617;BME280;62539;51.190;6.808;2023-08-17T05:59:12;101550.41;;;23.03;63.03
62617;BME280;62539;51.190;6.808;2023-08-17T06:01:39;101548.63;;;23.03;63.22
62617;BME280;62539;51.190;6.808;2023-08-17T06:04:05;101554.03;;;23.00;63.39
62617;BME280;62539;51.190;6.808;2023-08-17T06:06:31;101548.88;;;22.97;63.41
62617;BME280;62539;51.190;6.808;2023-08-17T06:08:57;101554.16;;;22.97;63.85
62617;BME280;62539;51.190;6.808;2023-08-17T06:11:22;101554.97;;;22.99;63.61
62617;BME280;62539;51.190;6.808;2023-08-17T06:13:49;101554.78;;;23.04;63.56
62617;BME280;62539;51.190;6.808;2023-08-17T06:16:14;101554.78;;;23.04;63.57
62617;BME280;62539;51.190;6.808;2023-08-17T06:18:40;101557.44;;;23.04;63.50
62617;BME280;62539;51.190;6.808;2023-08-17T06:21:06;101555.97;;;22.97;63.65
62617;BME280;62539;51.190;6.808;2023-08-17T06:23:32;101549.19;;;22.89;63.87
62617;BME280;62539;51.190;6.808;2023-08-17T06:25:58;101554.28;;;22.94;64.12
62617;BME280;62539;51.190;6.808;2023-08-17T06:28:24;101558.53;;;22.98;64.06
62617;BME280;62539;51.190;6.808;2023-08-17T06:30:54;101547.91;;;23.00;63.99
62617;BME280;62539;51.190;6.808;2023-08-17T06:33:21;101560.22;;;23.01;64.01
62617;BME280;62539;51.190;6.808;2023-08-17T06:35:48;101561.84;;;23.03;63.72
62617;BME280;62539;51.190;6.808;2023-08-17T06:38:14;101561.81;;;23.05;63.88
62617;BME280;62539;51.190;6.808;2023-08-17T06:40:39;101567.09;;;23.05;63.41
62617;BME280;62539;51.190;6.808;2023-08-17T06:43:05;101569.75;;;23.05;63.71
62617;BME280;62539;51.190;6.808;2023-08-17T06:45:34;101570.59;;;23.05;63.77
62617;BME280;62539;51.190;6.808;2023-08-17T06:48:00;101566.97;;;23.08;63.66
62617;BME280;62539;51.190;6.808;2023-08-17T06:50:26;101564.19;;;23.11;63.45
62617;BME280;62539;51.190;6.808;2023-08-17T06:52:52;101575.59;;;23.13;63.67
62617;BME280;62539;51.190;6.808;2023-08-17T06:55:17;101557.84;;;23.15;63.78
62617;BME280;62539;51.190;6.808;2023-08-17T06:57:43;101566.59;;;23.17;63.64
62617;BME280;62539;51.190;6.808;2023-08-17T07:00:09;101572.72;;;23.18;63.50
62617;BME280;62539;51.190;6.808;2023-08-17T07:02:36;101566.47;;;23.20;63.77
62617;BME280;62539;51.190;6.808;2023-08-17T07:06:34;101573.25;;;23.28;63.69
62617;BME280;62539;51.190;6.808;2023-08-17T07:08:59;101573.84;;;23.34;63.34
62617;BME280;62539;51.190;6.808;2023-08-17T07:11:25;101572.59;;;23.43;63.01
62617;BME280;62539;51.190;6.808;2023-08-17T07:13:51;101567.03;;;23.49;63.00
62617;BME280;62539;51.190;6.808;2023-08-17T07:16:16;101571.28;;;23.54;62.48
62617;BME280;62539;51.190;6.808;2023-08-17T07:18:41;101577.38;;;23.56;62.43
62617;BME280;62539;51.190;6.808;2023-08-17T07:21:07;101576.38;;;23.58;62.84
62617;BME280;62539;51.190;6.808;2023-08-17T07:23:32;101575.38;;;23.61;62.63
62617;BME280;62539;51.190;6.808;2023-08-17T07:25:58;101572.59;;;23.64;62.27
62617;BME280;62539;51.190;6.808;2023-08-17T07:28:23;101576.97;;;23.65;62.34
62617;BME280;62539;51.190;6.808;2023-08-17T07:30:49;101582.94;;;23.70;62.08
62617;BME280;62539;51.190;6.808;2023-08-17T07:33:14;101584.56;;;23.73;61.98
62617;BME280;62539;51.190;6.808;2023-08-17T07:35:40;101584.66;;;23.71;62.17
62617;BME280;62539;51.190;6.808;2023-08-17T07:38:05;101590.88;;;23.70;62.19
62617;BME280;62539;51.190;6.808;2023-08-17T07:40:30;101593.31;;;23.75;62.30
62617;BME280;62539;51.190;6.808;2023-08-17T07:42:56;101594.19;;;23.75;61.84
62617;BME280;62539;51.190;6.808;2023-08-17T07:45:21;101588.66;;;23.80;61.84
62617;BME280;62539;51.190;6.808;2023-08-17T07:47:47;101590.19;;;23.86;61.89
62617;BME280;62539;51.190;6.808;2023-08-17T07:50:12;101590.03;;;23.89;61.56
62617;BME280;62539;51.190;6.808;2023-08-17T07:52:37;101595.84;;;23.97;61.33
62617;BME280;62539;51.190;6.808;2023-08-17T07:55:03;101597.34;;;24.04;61.27
62617;BME280;62539;51.190;6.808;2023-08-17T07:57:30;101597.19;;;24.07;61.42
62617;BME280;62539;51.190;6.808;2023-08-17T07:59:55;101601.56;;;24.08;61.40
62617;BME280;62539;51.190;6.808;2023-08-17T08:02:21;101603.16;;;24.13;61.49
62617;BME280;62539;51.190;6.808;2023-08-17T08:04:46;101599.53;;;24.15;61.24
62617;BME280;62539;51.190;6.808;2023-08-17T08:07:12;101603.91;;;24.16;61.03
62617;BME280;62539;51.190;6.808;2023-08-17T08:09:37;101599.66;;;24.12;61.01
62617;BME280;62539;51.190;6.808;2023-08-17T08:12:03;101603.28;;;24.10;61.31
62617;BME280;62539;51.190;6.808;2023-08-17T08:14:28;101604.09;;;24.12;61.13
62617;BME280;62539;51.190;6.808;2023-08-17T08:16:54;101604.75;;;24.17;61.03
62617;BME280;62539;51.190;6.808;2023-08-17T08:19:20;101601.91;;;24.21;60.88
62617;BME280;62539;51.190;6.808;2023-08-17T08:21:45;101599.16;;;24.23;60.87
62617;BME280;62539;51.190;6.808;2023-08-17T08:24:10;101606.19;;;24.24;60.75
62617;BME280;62539;51.190;6.808;2023-08-17T08:26:36;101611.34;;;24.27;60.58
62617;BME280;62539;51.190;6.808;2023-08-17T08:29:01;101614.63;;;24.32;60.77
62617;BME280;62539;51.190;6.808;2023-08-17T08:31:27;101622.97;;;24.25;60.52
62617;BME280;62539;51.190;6.808;2023-08-17T08:33:52;101618.72;;;24.20;60.75
62617;BME280;62539;51.190;6.808;2023-08-17T08:36:18;101613.47;;;24.19;61.05
62617;BME280;62539;51.190;6.808;2023-08-17T08:38:44;101603.66;;;24.21;61.13
62617;BME280;62539;51.190;6.808;2023-08-17T08:41:11;101604.53;;;24.21;61.05
62617;BME280;62539;51.190;6.808;2023-08-17T08:43:38;101598.16;;;24.26;60.61
62617;BME280;62539;51.190;6.808;2023-08-17T08:46:04;101595.44;;;24.27;60.82
62617;BME280;62539;51.190;6.808;2023-08-17T08:48:31;101592.88;;;24.26;60.90
62617;BME280;62539;51.190;6.808;2023-08-17T08:50:59;101597.25;;;24.27;61.09
62617;BME280;62539;51.190;6.808;2023-08-17T08:53:38;101598.72;;;24.32;61.04
62617;BME280;62539;51.190;6.808;2023-08-17T08:56:11;101596.88;;;24.34;61.03
62617;BME280;62539;51.190;6.808;2023-08-17T08:58:40;101592.31;;;24.38;60.79
62617;BME280;62539;51.190;6.808;2023-08-17T09:01:10;101588.56;;;24.42;60.77
62617;BME280;62539;51.190;6.808;2023-08-17T09:03:36;101588.44;;;24.45;60.75
62617;BME280;62539;51.190;6.808;2023-08-17T09:06:03;101585.69;;;24.47;60.48
62617;BME280;62539;51.190;6.808;2023-08-17T09:08:30;101585.53;;;24.50;60.31
62617;BME280;62539;51.190;6.808;2023-08-17T09:10:56;101589.00;;;24.52;60.44
62617;BME280;62539;51.190;6.808;2023-08-17T09:13:22;101592.44;;;24.54;60.02
62617;BME280;62539;51.190;6.808;2023-08-17T09:15:47;101590.56;;;24.56;60.14
62617;BME280;62539;51.190;6.808;2023-08-17T09:18:13;101594.94;;;24.57;60.15
62617;BME280;62539;51.190;6.808;2023-08-17T09:20:43;101592.22;;;24.59;60.16
62617;BME280;62539;51.190;6.808;2023-08-17T09:23:11;101592.13;;;24.60;60.02
62617;BME280;62539;51.190;6.808;2023-08-17T09:25:48;101592.00;;;24.63;60.14
62617;BME280;62539;51.190;6.808;2023-08-17T09:28:18;101588.56;;;24.61;59.88
62617;BME280;62539;51.190;6.808;2023-08-17T09:31:00;101586.84;;;24.60;60.60
62617;BME280;62539;51.190;6.808;2023-08-17T09:33:32;101593.94;;;24.60;60.17
62617;BME280;62539;51.190;6.808;2023-08-17T09:35:59;101592.13;;;24.60;60.31
62617;BME280;62539;51.190;6.808;2023-08-17T09:38:26;101588.56;;;24.61;60.15
62617;BME280;62539;51.190;6.808;2023-08-17T09:40:52;101588.41;;;24.64;60.16
62617;BME280;62539;51.190;6.808;2023-08-17T09:43:18;101582.91;;;24.69;60.29
62617;BME280;62539;51.190;6.808;2023-08-17T09:45:46;101588.13;;;24.71;59.89
62617;BME280;62539;51.190;6.808;2023-08-17T09:48:17;101578.38;;;24.71;59.86
62617;BME280;62539;51.190;6.808;2023-08-17T09:50:45;101577.50;;;24.71;59.87
62617;BME280;62539;51.190;6.808;2023-08-17T09:53:15;101573.81;;;24.75;59.95
62617;BME280;62539;51.190;6.808;2023-08-17T09:55:43;101576.44;;;24.75;59.82
62617;BME280;62539;51.190;6.808;2023-08-17T09:58:13;101571.94;;;24.77;59.37
62617;BME280;62539;51.190;6.808;2023-08-17T10:00:44;101570.22;;;24.76;59.82
62617;BME280;62539;51.190;6.808;2023-08-17T10:03:13;101564.84;;;24.77;59.80
62617;BME280;62539;51.190;6.808;2023-08-17T10:05:40;101568.13;;;24.83;59.61
62617;BME280;62539;51.190;6.808;2023-08-17T10:08:10;101573.34;;;24.84;59.61
62617;BME280;62539;51.190;6.808;2023-08-17T10:10:43;101572.13;;;24.91;59.55
62617;BME280;62539;51.190;6.808;2023-08-17T10:13:11;101568.31;;;24.97;59.38
62617;BME280;62539;51.190;6.808;2023-08-17T10:15:48;101569.00;;;25.01;59.40
62617;BME280;62539;51.190;6.808;2023-08-17T10:21:56;101565.84;;;25.12;59.48
62617;BME280;62539;51.190;6.808;2023-08-17T10:24:37;101569.97;;;25.17;59.05
62617;BME280;62539;51.190;6.808;2023-08-17T10:27:05;101568.19;;;25.18;59.04
62617;BME280;62539;51.190;6.808;2023-08-17T10:29:31;101566.38;;;25.18;58.97
62617;BME280;62539;51.190;6.808;2023-08-17T10:32:00;101566.06;;;25.24;58.60
62617;BME280;62539;51.190;6.808;2023-08-17T10:34:27;101570.28;;;25.29;58.76
62617;BME280;62539;51.190;6.808;2023-08-17T10:36:54;101568.50;;;25.29;58.55
62617;BME280;62539;51.190;6.808;2023-08-17T10:39:27;101587.00;;;25.31;58.55
62617;BME280;62539;51.190;6.808;2023-08-17T10:41:54;101578.97;;;25.32;58.75
62617;BME280;62539;51.190;6.808;2023-08-17T10:44:37;101582.47;;;25.33;58.32
62617;BME280;62539;51.190;6.808;2023-08-17T10:47:26;101585.06;;;25.34;58.94
62617;BME280;62539;51.190;6.808;2023-08-17T10:50:03;101574.34;;;25.36;58.48
62617;BME280;62539;51.190;6.808;2023-08-17T10:52:44;101586.63;;;25.38;58.75
62617;BME280;62539;51.190;6.808;2023-08-17T10:55:12;101586.69;;;25.37;58.58
62617;BME280;62539;51.190;6.808;2023-08-17T10:57:42;101585.91;;;25.35;58.43
62617;BME280;62539;51.190;6.808;2023-08-17T11:00:15;101587.00;;;25.31;58.63
62617;BME280;62539;51.190;6.808;2023-08-17T11:02:59;101580.75;;;25.32;58.81
62617;BME280;62539;51.190;6.808;2023-08-17T11:05:43;101579.81;;;25.33;58.44
62617;BME280;62539;51.190;6.808;2023-08-17T11:08:40;101587.00;;;25.31;58.46
62617;BME280;62539;51.190;6.808;2023-08-17T11:11:21;101583.41;;;25.32;58.57
62617;BME280;62539;51.190;6.808;2023-08-17T11:13:52;101573.81;;;25.29;58.50
62617;BME280;62539;51.190;6.808;2023-08-17T11:16:18;101580.69;;;25.33;58.84
62617;BME280;62539;51.190;6.808;2023-08-17T11:18:45;101577.00;;;25.36;58.80
62617;BME280;62539;51.190;6.808;2023-08-17T11:21:14;101574.34;;;25.36;59.03
62617;BME280;62539;51.190;6.808;2023-08-17T11:23:40;101576.16;;;25.35;58.85
62617;BME280;62539;51.190;6.808;2023-08-17T11:26:06;101579.50;;;25.39;58.66
62617;BME280;62539;51.190;6.808;2023-08-17T11:28:33;101578.41;;;25.43;58.58
62617;BME280;62539;51.190;6.808;2023-08-17T11:31:04;101579.06;;;25.48;58.50
62617;BME280;62539;51.190;6.808;2023-08-17T11:33:32;101575.31;;;25.52;58.42
62617;BME280;62539;51.190;6.808;2023-08-17T11:36:00;101573.44;;;25.54;58.32
62617;BME280;62539;51.190;6.808;2023-08-17T11:38:31;101569.69;;;25.59;58.23
62617;BME280;62539;51.190;6.808;2023-08-17T11:41:07;101578.59;;;25.58;58.52
62617;BME280;62539;51.190;6.808;2023-08-17T11:43:34;101575.16;;;25.56;58.50
62617;BME280;62539;51.190;6.808;2023-08-17T11:46:03;101579.78;;;25.52;58.71
62617;BME280;62539;51.190;6.808;2023-08-17T11:48:30;101570.16;;;25.49;58.80
62617;BME280;62539;51.190;6.808;2023-08-17T11:50:56;101579.84;;;25.50;58.37
62617;BME280;62539;51.190;6.808;2023-08-17T11:53:21;101576.50;;;25.47;58.80
62617;BME280;62539;51.190;6.808;2023-08-17T11:55:47;101579.94;;;25.49;58.87
62617;BME280;62539;51.190;6.808;2023-08-17T11:58:14;101582.44;;;25.52;58.73
62617;BME280;62539;51.190;6.808;2023-08-17T12:00:41;101579.47;;;25.58;58.69
62617;BME280;62539;51.190;6.808;2023-08-17T12:03:13;101571.41;;;25.60;58.85
62617;BME280;62539;51.190;6.808;2023-08-17T12:05:41;101576.38;;;25.66;58.74
62617;BME280;62539;51.190;6.808;2023-08-17T12:08:08;101574.66;;;25.65;58.73
62617;BME280;62539;51.190;6.808;2023-08-17T12:10:34;101569.97;;;25.70;58.74
62617;BME280;62539;51.190;6.808;2023-08-17T12:13:02;101569.81;;;25.73;58.43
62617;BME280;62539;51.190;6.808;2023-08-17T12:15:32;101573.25;;;25.75;58.34
62617;BME280;62539;51.190;6.808;2023-08-17T12:18:02;101577.47;;;25.79;58.43
62617;BME280;62539;51.190;6.808;2023-08-17T12:20:29;101567.72;;;25.80;58.49
62617;BME280;62539;51.190;6.808;2023-08-17T12:22:58;101567.59;;;25.81;58.42
62617;BME280;62539;51.190;6.808;2023-08-17T12:25:26;101568.38;;;25.83;58.75
62617;BME280;62539;51.190;6.808;2023-08-17T12:27:52;101567.38;;;25.86;58.52
62617;BME280;62539;51.190;6.808;2023-08-17T12:30:29;101561.13;;;25.87;58.35
62617;BME280;62539;51.190;6.808;2023-08-17T12:33:01;101559.16;;;25.91;58.31
62617;BME280;62539;51.190;6.808;2023-08-17T12:35:26;101562.56;;;25.93;58.18
62617;BME280;62539;51.190;6.808;2023-08-17T12:37:52;101564.28;;;25.94;58.45
62617;BME280;62539;51.190;6.808;2023-08-17T12:40:19;101559.16;;;25.91;58.10
62617;BME280;62539;51.190;6.808;2023-08-17T12:42:46;101569.72;;;25.92;58.40
62617;BME280;62539;51.190;6.808;2023-08-17T12:45:12;101565.22;;;25.93;58.32
62617;BME280;62539;51.190;6.808;2023-08-17T12:47:37;101564.63;;;25.88;58.46
62617;BME280;62539;51.190;6.808;2023-08-17T12:50:03;101568.06;;;25.90;58.48
62617;BME280;62539;51.190;6.808;2023-08-17T12:52:29;101560.19;;;25.88;58.48
62617;BME280;62539;51.190;6.808;2023-08-17T12:54:55;101561.03;;;25.89;58.64
62617;BME280;62539;51.190;6.808;2023-08-17T12:57:20;101563.69;;;25.89;58.31
62617;BME280;62539;51.190;6.808;2023-08-17T12:59:45;101561.97;;;25.88;58.66